Time;durP1;ratioP1;P1;durP2;ratioP2;P2;SDS_P1;SDS_P2;PMS_P1;PMS_P2;Temp;Humidity;BMP_temperature;BMP_pressure;BME280_temperature;BME280_humidity;BME280_pressure;Samples;Min_cycle;Max_cycle;Signal;HPM_P1;HPM_P2
2023/06/05 00:02:12;;;;;;;3.72;1.27;;;18.30;56.40;;;;;;4971815;28;20461;-70
2023/06/05 00:04:39;;;;;;;1.50;1.20;;;18.30;56.40;;;;;;4967912;28;20285;-72
2023/06/05 00:07:05;;;;;;;2.03;1.20;;;18.30;56.40;;;;;;4969509;28;20041;-71
2023/06/05 00:09:31;;;;;;;1.65;1.13;;;18.20;56.50;;;;;;4978524;28;20439;-72
2023/06/05 00:11:57;;;;;;;2.33;1.30;;;18.20;56.50;;;;;;4954567;28;20066;-72
2023/06/05 00:14:23;;;;;;;2.40;1.20;;;18.10;56.70;;;;;;4977646;28;20034;-72
2023/06/05 00:16:51;;;;;;;2.80;1.50;;;18.10;56.90;;;;;;4972823;28;20046;-71
2023/06/05 00:19:17;;;;;;;2.85;1.10;;;18.10;56.80;;;;;;4971945;28;20030;-71
2023/06/05 00:21:43;;;;;;;2.70;1.30;;;18.00;56.80;;;;;;4967547;28;20065;-72
2023/06/05 00:24:09;;;;;;;1.95;1.23;;;18.00;57.00;;;;;;4971666;28;20125;-70
2023/06/05 00:26:35;;;;;;;1.88;1.20;;;17.90;57.80;;;;;;4950656;28;20651;-73
2023/06/05 00:29:00;;;;;;;2.07;1.23;;;17.90;57.20;;;;;;4982615;28;20045;-73
2023/06/05 00:31:27;;;;;;;2.33;1.33;;;17.80;57.20;;;;;;4963425;28;20025;-72
2023/06/05 00:33:52;;;;;;;2.05;1.27;;;17.80;57.30;;;;;;4982385;28;20069;-72
2023/06/05 00:36:22;;;;;;;2.17;1.20;;;17.80;57.50;;;;;;4965907;28;20156;-71
2023/06/05 00:38:51;;;;;;;1.92;1.25;;;17.70;57.40;;;;;;4967231;28;20173;-71
2023/06/05 00:41:17;;;;;;;2.58;1.30;;;17.70;57.50;;;;;;4956337;28;20086;-71
2023/06/05 00:43:43;;;;;;;3.30;1.27;;;17.60;57.60;;;;;;4969538;28;20041;-72
2023/06/05 00:46:11;;;;;;;1.80;1.17;;;17.60;57.70;;;;;;4984473;28;20621;-71
2023/06/05 00:48:37;;;;;;;1.70;1.10;;;17.60;58.10;;;;;;4981858;28;20212;-72
2023/06/05 00:51:02;;;;;;;2.08;1.30;;;17.50;58.10;;;;;;4970424;28;20034;-71
2023/06/05 00:53:32;;;;;;;2.63;1.30;;;17.50;58.00;;;;;;4965311;28;20026;-73
2023/06/05 00:55:58;;;;;;;1.98;1.20;;;17.40;58.40;;;;;;4977111;28;20739;-72
2023/06/05 00:58:25;;;;;;;2.20;1.30;;;17.40;58.20;;;;;;4937336;28;20205;-71
2023/06/05 01:00:51;;;;;;;2.10;1.47;;;17.40;58.40;;;;;;4979360;28;20034;-72
2023/06/05 01:03:17;;;;;;;2.67;1.38;;;17.40;58.50;;;;;;4980673;28;20027;-70
2023/06/05 01:05:43;;;;;;;2.63;1.40;;;17.30;59.30;;;;;;4976604;28;20038;-71
2023/06/05 01:08:12;;;;;;;3.00;1.40;;;17.30;58.70;;;;;;4967267;28;20026;-71
2023/06/05 01:10:38;;;;;;;2.33;1.30;;;17.20;58.80;;;;;;4977851;28;20232;-73
2023/06/05 01:13:23;;;;;;;2.13;1.20;;;17.20;58.70;;;;;;4955092;28;20762;-70
2023/06/05 01:15:50;;;;;;;2.28;1.30;;;17.20;59.60;;;;;;4978521;28;20050;-72
2023/06/05 01:18:18;;;;;;;2.60;1.45;;;17.10;58.80;;;;;;4978704;28;20030;-70
2023/06/05 01:20:44;;;;;;;2.07;1.40;;;17.10;58.90;;;;;;4977996;28;20022;-72
2023/06/05 01:23:10;;;;;;;3.13;1.30;;;17.10;58.90;;;;;;4960190;28;20042;-70
2023/06/05 01:25:42;;;;;;;2.85;1.30;;;17.00;59.20;;;;;;4970536;28;20248;-73
2023/06/05 01:28:15;;;;;;;2.85;1.45;;;17.00;59.20;;;;;;4951842;28;20030;-72
2023/06/05 01:31:21;;;;;;;2.60;1.30;;;16.90;59.60;;;;;;4956922;28;20156;-72
2023/06/05 01:33:56;;;;;;;3.10;1.50;;;16.90;61.10;;;;;;4981915;28;20030;-73
2023/06/05 01:36:23;;;;;;;2.85;1.35;;;16.90;59.70;;;;;;4969557;28;20061;-72
2023/06/05 01:38:50;;;;;;;2.40;1.40;;;16.80;59.50;;;;;;4971517;28;20023;-72
2023/06/05 01:41:17;;;;;;;4.13;1.52;;;16.80;59.50;;;;;;4969012;28;20038;-71
2023/06/05 01:43:45;;;;;;;2.37;1.40;;;16.70;59.40;;;;;;4951263;28;20027;-72
2023/06/05 01:46:12;;;;;;;2.58;1.40;;;16.70;59.90;;;;;;4979044;28;20703;-71
2023/06/05 01:48:38;;;;;;;3.28;1.70;;;16.70;59.80;;;;;;4978537;28;20148;-71
2023/06/05 01:51:05;;;;;;;2.30;1.50;;;16.60;59.80;;;;;;4982719;28;20030;-72
2023/06/05 01:53:30;;;;;;;2.67;1.42;;;16.60;59.90;;;;;;4963388;28;20077;-71
2023/06/05 01:55:57;;;;;;;3.17;1.43;;;16.50;59.80;;;;;;4967037;28;20581;-73
2023/06/05 01:58:26;;;;;;;2.38;1.30;;;16.50;59.90;;;;;;4945546;28;21313;-72
2023/06/05 02:00:53;;;;;;;3.03;1.40;;;16.50;60.50;;;;;;4977023;28;20030;-73
2023/06/05 02:03:20;;;;;;;2.55;1.60;;;16.50;60.10;;;;;;4973846;28;20176;-71
2023/06/05 02:05:46;;;;;;;2.25;1.40;;;16.40;60.10;;;;;;4979367;28;20033;-73
2023/06/05 02:08:13;;;;;;;1.90;1.27;;;16.40;60.20;;;;;;4966356;28;20717;-71
2023/06/05 02:10:43;;;;;;;2.25;1.30;;;16.40;60.30;;;;;;4963742;28;20077;-72
2023/06/05 02:13:10;;;;;;;2.38;1.50;;;16.30;60.30;;;;;;4976163;28;20018;-71
2023/06/05 02:15:36;;;;;;;2.20;1.45;;;16.30;60.40;;;;;;4947275;28;20216;-71
2023/06/05 02:18:02;;;;;;;2.97;1.40;;;16.30;60.40;;;;;;4980563;28;20445;-73
2023/06/05 02:20:28;;;;;;;2.33;1.40;;;16.30;60.70;;;;;;4977282;28;20347;-72
2023/06/05 02:22:54;;;;;;;2.33;1.50;;;16.20;60.60;;;;;;4968970;28;20483;-73
2023/06/05 02:25:25;;;;;;;2.22;1.33;;;16.20;60.70;;;;;;4976248;28;20053;-71
2023/06/05 02:27:51;;;;;;;1.85;1.30;;;16.20;60.90;;;;;;4969074;28;20105;-73
2023/06/05 02:30:17;;;;;;;1.90;1.40;;;16.10;60.80;;;;;;4955647;28;21342;-71
2023/06/05 02:32:46;;;;;;;2.38;1.42;;;16.10;60.90;;;;;;4975163;28;20473;-72
2023/06/05 02:35:12;;;;;;;2.38;1.42;;;16.10;60.80;;;;;;4977952;28;20943;-71
2023/06/05 02:37:43;;;;;;;2.70;1.70;;;16.00;61.00;;;;;;4977635;28;20486;-73
2023/06/05 02:40:12;;;;;;;3.00;1.60;;;16.00;61.20;;;;;;4970251;28;20168;-71
2023/06/05 02:42:39;;;;;;;2.50;1.43;;;16.00;61.30;;;;;;4966547;28;20044;-72
2023/06/05 02:45:05;;;;;;;1.85;1.25;;;15.90;61.20;;;;;;4973605;28;20053;-71
2023/06/05 02:47:31;;;;;;;3.50;1.73;;;15.90;61.30;;;;;;4955971;28;20023;-73
2023/06/05 02:49:57;;;;;;;4.13;1.67;;;15.90;61.50;;;;;;4979274;28;20026;-73
2023/06/05 02:52:24;;;;;;;3.35;1.30;;;15.80;61.70;;;;;;4978081;28;20030;-72
2023/06/05 02:54:50;;;;;;;2.13;1.40;;;15.80;61.60;;;;;;4968663;28;20050;-72
2023/06/05 02:57:17;;;;;;;2.35;1.48;;;15.80;61.70;;;;;;4965516;28;20034;-71
2023/06/05 02:59:43;;;;;;;3.10;1.50;;;15.70;61.80;;;;;;4979807;28;20068;-71
2023/06/05 03:02:10;;;;;;;1.85;1.45;;;15.70;61.80;;;;;;4947056;28;20045;-71
2023/06/05 03:04:36;;;;;;;2.50;1.27;;;15.70;61.90;;;;;;4981566;28;20176;-72
2023/06/05 03:07:04;;;;;;;2.27;1.43;;;15.70;61.80;;;;;;4977888;28;20030;-72
2023/06/05 03:09:31;;;;;;;2.63;1.50;;;15.60;62.00;;;;;;4964615;28;20030;-71
2023/06/05 03:11:57;;;;;;;2.40;1.38;;;15.60;62.00;;;;;;4979250;28;20026;-73
2023/06/05 03:14:23;;;;;;;3.20;1.52;;;15.50;62.10;;;;;;4969561;28;20393;-72
2023/06/05 03:16:50;;;;;;;2.67;1.40;;;15.50;62.10;;;;;;4950810;28;20038;-72
2023/06/05 03:19:16;;;;;;;3.03;1.50;;;15.50;62.20;;;;;;4978563;28;20080;-71
2023/06/05 03:21:42;;;;;;;3.17;1.67;;;15.40;62.40;;;;;;4964792;28;20504;-73
2023/06/05 03:24:12;;;;;;;2.67;1.45;;;15.40;62.60;;;;;;4975547;28;20042;-71
2023/06/05 03:26:40;;;;;;;2.72;1.60;;;15.40;62.70;;;;;;4964315;28;20537;-72
2023/06/05 03:29:06;;;;;;;2.30;1.40;;;15.40;62.80;;;;;;4963600;28;20449;-71
2023/06/05 03:31:32;;;;;;;2.47;1.50;;;15.30;62.70;;;;;;4979084;28;20191;-72
2023/06/05 03:34:02;;;;;;;2.47;1.60;;;15.30;62.90;;;;;;4951616;28;20038;-72
2023/06/05 03:36:29;;;;;;;2.63;1.48;;;15.30;62.90;;;;;;4974652;28;20319;-73
2023/06/05 03:38:55;;;;;;;2.10;1.43;;;15.30;62.90;;;;;;4969311;28;20121;-72
2023/06/05 03:41:21;;;;;;;3.20;1.70;;;15.20;63.10;;;;;;4960175;28;20109;-71
2023/06/05 03:43:49;;;;;;;2.50;1.52;;;15.20;63.10;;;;;;4956687;28;20034;-72
2023/06/05 03:46:18;;;;;;;2.65;1.50;;;15.20;63.20;;;;;;4978738;28;20018;-71
2023/06/05 03:48:45;;;;;;;2.37;1.50;;;15.20;63.20;;;;;;4952886;28;20061;-73
2023/06/05 03:51:11;;;;;;;2.70;1.90;;;15.10;63.40;;;;;;4976046;28;20030;-71
2023/06/05 03:53:39;;;;;;;2.35;1.55;;;15.10;63.40;;;;;;4975834;28;20031;-73
2023/06/05 03:56:06;;;;;;;2.70;1.65;;;15.10;63.50;;;;;;4976699;28;20140;-71
2023/06/05 03:58:32;;;;;;;3.10;1.53;;;15.10;63.60;;;;;;4932227;28;20814;-72
2023/06/05 04:00:58;;;;;;;2.72;1.75;;;15.10;63.70;;;;;;4967267;28;20038;-73
2023/06/05 04:03:25;;;;;;;2.73;1.60;;;15.00;63.70;;;;;;4944485;28;20045;-72
2023/06/05 04:05:51;;;;;;;3.38;1.50;;;15.00;63.80;;;;;;4976249;28;20413;-72
2023/06/05 04:08:17;;;;;;;1.95;1.40;;;15.00;63.90;;;;;;4977906;28;20550;-71
2023/06/05 04:10:42;;;;;;;2.65;1.65;;;15.00;64.00;;;;;;4978332;28;20015;-72
2023/06/05 04:13:08;;;;;;;2.50;1.60;;;15.00;64.00;;;;;;4967761;28;20075;-71
2023/06/05 04:15:34;;;;;;;2.10;1.50;;;15.00;64.80;;;;;;4969579;28;20034;-71
2023/06/05 04:18:00;;;;;;;2.60;1.60;;;15.00;64.00;;;;;;4981488;28;20173;-71
2023/06/05 04:20:26;;;;;;;3.30;1.60;;;15.00;64.10;;;;;;4950831;28;20560;-72
2023/06/05 04:22:52;;;;;;;3.42;1.65;;;15.00;64.20;;;;;;4985096;28;20417;-72
2023/06/05 04:25:17;;;;;;;2.87;1.60;;;15.00;64.20;;;;;;4970950;28;20066;-70
2023/06/05 04:27:45;;;;;;;2.38;1.70;;;15.00;64.30;;;;;;4972290;28;20423;-71
2023/06/05 04:30:12;;;;;;;2.58;1.60;;;15.00;64.60;;;;;;4973153;28;20037;-71
2023/06/05 04:32:38;;;;;;;2.90;1.73;;;15.00;64.70;;;;;;4956391;28;20125;-72
2023/06/05 04:35:06;;;;;;;2.83;1.60;;;15.00;64.70;;;;;;4947348;28;20050;-71
2023/06/05 04:37:32;;;;;;;3.47;1.98;;;15.00;64.70;;;;;;4979678;28;20287;-72
2023/06/05 04:39:58;;;;;;;2.55;1.65;;;15.00;64.90;;;;;;4981679;28;20042;-72
2023/06/05 04:42:25;;;;;;;3.88;1.90;;;15.00;64.80;;;;;;4964924;28;20264;-73
2023/06/05 04:44:57;;;;;;;3.03;1.63;;;15.00;64.90;;;;;;4966550;28;20057;-72
2023/06/05 04:47:23;;;;;;;2.78;1.70;;;15.00;65.50;;;;;;4964749;28;20088;-71
2023/06/05 04:49:51;;;;;;;2.70;1.85;;;15.00;64.90;;;;;;4983156;28;20042;-72
2023/06/05 04:52:17;;;;;;;3.30;1.88;;;15.10;64.90;;;;;;4951324;28;20425;-71
2023/06/05 04:54:43;;;;;;;3.72;1.90;;;15.10;65.10;;;;;;4982350;28;20061;-71
2023/06/05 04:57:10;;;;;;;2.57;1.60;;;15.10;65.10;;;;;;4971823;28;20117;-71
2023/06/05 04:59:36;;;;;;;3.17;1.90;;;15.10;65.10;;;;;;4954034;28;20540;-71
2023/06/05 05:02:03;;;;;;;2.63;1.73;;;15.10;65.20;;;;;;4949785;28;20116;-71
2023/06/05 05:04:29;;;;;;;3.22;1.95;;;15.10;65.10;;;;;;4979782;28;20392;-72
2023/06/05 05:07:00;;;;;;;3.70;2.13;;;15.10;65.80;;;;;;4947638;28;20025;-71
2023/06/05 05:09:27;;;;;;;3.58;2.03;;;15.10;65.20;;;;;;4976589;28;20027;-71
2023/06/05 05:11:53;;;;;;;3.20;2.00;;;15.20;65.40;;;;;;4975710;28;20409;-72
2023/06/05 05:14:18;;;;;;;3.60;1.95;;;15.20;65.50;;;;;;4965725;28;20120;-72
2023/06/05 05:16:44;;;;;;;3.87;2.30;;;15.20;65.20;;;;;;4978342;28;20058;-71
2023/06/05 05:19:10;;;;;;;3.10;2.23;;;15.20;65.30;;;;;;4965016;28;20037;-71
2023/06/05 05:21:37;;;;;;;3.78;1.92;;;15.20;65.20;;;;;;4947543;28;20030;-72
2023/06/05 05:24:03;;;;;;;3.63;2.05;;;15.20;65.40;;;;;;4947011;28;20045;-72
2023/06/05 05:26:30;;;;;;;4.30;2.00;;;15.20;65.40;;;;;;4978133;28;20084;-70
2023/06/05 05:28:55;;;;;;;2.90;1.95;;;15.20;65.70;;;;;;4979632;28;20085;-72
2023/06/05 05:31:22;;;;;;;3.70;2.10;;;15.20;65.70;;;;;;4966082;28;20427;-71
2023/06/05 05:33:48;;;;;;;4.72;2.47;;;15.20;65.70;;;;;;4964707;28;20353;-72
2023/06/05 05:36:14;;;;;;;2.88;2.10;;;15.30;65.80;;;;;;4982661;28;20026;-71
2023/06/05 05:38:40;;;;;;;3.93;2.27;;;15.30;65.90;;;;;;4935687;28;20072;-72
2023/06/05 05:41:06;;;;;;;3.60;2.10;;;15.30;65.90;;;;;;4964156;28;20168;-72
2023/06/05 05:43:32;;;;;;;3.00;1.95;;;15.30;66.00;;;;;;4978542;28;20041;-71
2023/06/05 05:45:57;;;;;;;4.27;2.30;;;15.40;66.10;;;;;;4948352;28;20023;-70
2023/06/05 05:48:23;;;;;;;2.88;1.95;;;15.40;66.00;;;;;;4974224;28;20124;-71
2023/06/05 05:50:49;;;;;;;3.40;2.10;;;15.50;66.00;;;;;;4966853;28;20023;-71
2023/06/05 05:53:15;;;;;;;3.40;2.28;;;15.50;65.90;;;;;;4929786;28;20050;-71
2023/06/05 05:55:41;;;;;;;3.08;2.10;;;15.50;65.80;;;;;;4974602;28;20025;-72
2023/06/05 05:58:08;;;;;;;4.13;2.13;;;15.50;65.90;;;;;;4968058;28;20034;-70
2023/06/05 06:00:34;;;;;;;4.03;2.30;;;15.60;66.10;;;;;;4965563;28;20038;-72
2023/06/05 06:03:00;;;;;;;3.50;2.22;;;15.60;66.30;;;;;;4976813;28;20797;-71
2023/06/05 06:05:26;;;;;;;2.97;2.10;;;15.70;66.30;;;;;;4960776;28;20113;-70
2023/06/05 06:07:52;;;;;;;3.97;2.45;;;15.80;66.30;;;;;;4943865;28;20778;-72
2023/06/05 06:10:18;;;;;;;5.43;2.63;;;15.80;66.40;;;;;;4930354;28;20863;-71
2023/06/05 06:12:45;;;;;;;4.35;2.22;;;15.90;66.40;;;;;;4962396;28;20302;-71
2023/06/05 06:15:11;;;;;;;4.72;2.40;;;16.00;66.60;;;;;;4966346;28;20050;-72
2023/06/05 06:17:37;;;;;;;3.08;2.13;;;16.00;66.30;;;;;;4960950;28;20049;-72
2023/06/05 06:20:06;;;;;;;3.80;1.97;;;16.10;66.40;;;;;;4962649;28;20093;-71
2023/06/05 06:22:31;;;;;;;3.50;2.40;;;16.20;66.20;;;;;;4974135;28;20083;-73
2023/06/05 06:24:57;;;;;;;3.88;2.60;;;16.30;66.20;;;;;;4928111;28;20505;-71
2023/06/05 06:27:24;;;;;;;3.93;2.20;;;16.30;66.20;;;;;;4975942;28;20081;-72
2023/06/05 06:29:52;;;;;;;4.40;2.42;;;16.40;66.20;;;;;;4976132;28;20428;-71
2023/06/05 06:32:18;;;;;;;3.97;2.60;;;16.40;66.20;;;;;;4953247;28;20235;-71
2023/06/05 06:34:44;;;;;;;3.70;2.28;;;16.40;66.20;;;;;;4973438;28;20070;-72
2023/06/05 06:37:13;;;;;;;4.40;2.43;;;16.50;66.30;;;;;;4962638;28;20046;-72
2023/06/05 06:39:39;;;;;;;4.60;2.72;;;16.50;66.20;;;;;;4930136;28;20109;-72
2023/06/05 06:42:05;;;;;;;4.65;2.75;;;16.60;67.10;;;;;;4966945;28;20282;-72
2023/06/05 06:44:30;;;;;;;3.73;2.50;;;16.70;66.30;;;;;;4972391;28;20042;-73
2023/06/05 06:46:56;;;;;;;3.85;2.30;;;16.70;66.50;;;;;;4951325;28;20030;-70
2023/06/05 06:49:22;;;;;;;4.60;2.50;;;16.80;66.50;;;;;;4977359;28;20389;-72
2023/06/05 06:51:48;;;;;;;4.03;2.70;;;16.90;66.50;;;;;;4966101;28;20299;-70
2023/06/05 06:54:13;;;;;;;4.75;2.65;;;17.00;66.40;;;;;;4943303;28;20027;-70
2023/06/05 06:56:40;;;;;;;4.80;2.60;;;17.00;66.40;;;;;;4968355;28;20070;-72
2023/06/05 06:59:15;;;;;;;4.57;2.90;;;17.10;66.40;;;;;;4966207;28;20047;-71
2023/06/05 07:01:45;;;;;;;4.50;2.40;;;17.20;66.80;;;;;;4969467;28;20050;-71
2023/06/05 07:04:19;;;;;;;4.40;2.57;;;17.30;66.60;;;;;;4967883;28;20036;-72
2023/06/05 07:06:48;;;;;;;3.45;2.55;;;17.30;66.30;;;;;;4976711;28;20069;-71
2023/06/05 07:09:14;;;;;;;5.53;2.67;;;17.40;66.10;;;;;;4941787;28;20053;-72
2023/06/05 07:11:40;;;;;;;4.90;2.78;;;17.50;66.20;;;;;;4967535;28;20030;-72
2023/06/05 07:14:07;;;;;;;4.37;2.93;;;17.60;66.20;;;;;;4981265;28;20781;-72
2023/06/05 07:16:33;;;;;;;5.10;2.70;;;17.60;66.00;;;;;;4975209;28;20060;-71
2023/06/05 07:18:59;;;;;;;4.28;2.60;;;17.70;66.20;;;;;;4955179;28;20047;-71
2023/06/05 07:21:25;;;;;;;6.30;3.00;;;17.80;66.20;;;;;;4981144;28;20023;-72
2023/06/05 07:23:51;;;;;;;4.18;2.97;;;17.90;66.20;;;;;;4967657;28;20030;-71
2023/06/05 07:26:21;;;;;;;5.00;3.17;;;17.90;66.20;;;;;;4951029;28;20271;-72
2023/06/05 07:28:48;;;;;;;6.25;3.00;;;18.00;66.30;;;;;;4954051;28;20027;-71
2023/06/05 07:31:14;;;;;;;4.60;3.10;;;18.10;66.80;;;;;;4979165;28;20046;-71
2023/06/05 07:33:41;;;;;;;4.23;3.03;;;18.20;66.20;;;;;;4973029;28;20029;-71
2023/06/05 07:36:08;;;;;;;5.50;2.95;;;18.30;66.00;;;;;;4969484;28;20097;-73
2023/06/05 07:38:33;;;;;;;5.30;2.72;;;18.40;65.60;;;;;;4982753;28;20037;-72
2023/06/05 07:41:01;;;;;;;4.47;2.60;;;18.40;65.40;;;;;;4938642;28;20038;-72
2023/06/05 07:43:28;;;;;;;4.97;2.90;;;18.50;65.50;;;;;;4972358;28;20042;-72
2023/06/05 07:45:54;;;;;;;4.55;2.90;;;18.60;65.60;;;;;;4984415;28;20464;-71
2023/06/05 07:48:20;;;;;;;4.80;2.88;;;18.60;65.50;;;;;;4979146;28;20027;-72
2023/06/05 07:50:46;;;;;;;4.88;2.90;;;18.70;65.60;;;;;;4966464;28;20671;-71
2023/06/05 07:53:11;;;;;;;5.63;2.90;;;18.80;65.70;;;;;;4971873;28;20023;-72
2023/06/05 07:55:37;;;;;;;4.15;2.85;;;18.90;65.60;;;;;;4972629;28;20105;-72
2023/06/05 07:58:03;;;;;;;6.20;2.87;;;19.00;65.80;;;;;;4936869;28;20647;-71
2023/06/05 08:00:29;;;;;;;4.88;2.78;;;19.10;66.40;;;;;;4983407;28;20385;-72
2023/06/05 08:02:55;;;;;;;4.70;3.03;;;19.40;67.20;;;;;;4978705;28;20018;-71
2023/06/05 08:05:21;;;;;;;5.57;2.70;;;19.70;67.80;;;;;;4973431;28;20049;-72
2023/06/05 08:07:46;;;;;;;4.65;2.90;;;20.00;68.10;;;;;;4971096;28;20026;-71
2023/06/05 08:10:13;;;;;;;3.80;2.90;;;20.40;68.00;;;;;;4970561;28;21820;-71
2023/06/05 08:12:39;;;;;;;4.53;2.90;;;20.80;67.70;;;;;;4952269;28;20434;-73
2023/06/05 08:15:06;;;;;;;4.47;2.65;;;21.20;67.70;;;;;;4968641;28;20347;-72
2023/06/05 08:17:31;;;;;;;4.43;2.85;;;21.60;67.90;;;;;;4983337;28;20049;-71
2023/06/05 08:19:57;;;;;;;3.93;2.63;;;22.10;67.90;;;;;;4973125;28;20405;-71
2023/06/05 08:22:23;;;;;;;4.30;2.60;;;22.60;67.80;;;;;;4985841;28;20490;-72
2023/06/05 08:24:50;;;;;;;4.97;2.58;;;23.00;67.20;;;;;;4959874;28;20038;-71
2023/06/05 08:27:17;;;;;;;3.23;2.10;;;23.50;66.80;;;;;;4973049;28;20746;-72
2023/06/05 08:29:43;;;;;;;3.05;2.20;;;24.00;66.30;;;;;;4933661;28;20026;-71
2023/06/05 08:32:08;;;;;;;3.15;2.45;;;24.50;65.70;;;;;;4976788;28;20047;-72
2023/06/05 08:34:35;;;;;;;3.97;3.03;;;24.80;64.70;;;;;;4983193;28;20531;-72
2023/06/05 08:37:01;;;;;;;3.72;2.70;;;25.20;63.30;;;;;;4968331;28;20242;-72
2023/06/05 08:39:31;;;;;;;3.78;2.72;;;25.50;62.30;;;;;;4969568;28;20647;-73
2023/06/05 08:42:00;;;;;;;4.20;2.97;;;25.80;61.80;;;;;;4970527;28;20034;-71
2023/06/05 08:44:30;;;;;;;3.67;2.90;;;26.00;60.00;;;;;;4939374;28;20038;-73
2023/06/05 08:47:03;;;;;;;3.75;2.55;;;26.20;58.60;;;;;;4954025;28;20065;-71
2023/06/05 08:49:30;;;;;;;2.95;2.10;;;26.30;58.50;;;;;;4985858;28;20025;-73
2023/06/05 08:52:05;;;;;;;3.63;2.70;;;26.50;59.60;;;;;;4969130;28;20033;-71
2023/06/05 08:54:40;;;;;;;4.50;2.50;;;26.70;58.00;;;;;;4967793;28;20062;-72
2023/06/05 08:57:07;;;;;;;3.00;2.45;;;26.90;57.30;;;;;;4967941;28;20151;-73
2023/06/05 08:59:33;;;;;;;3.50;2.55;;;27.10;58.00;;;;;;4953874;28;20042;-73
2023/06/05 09:02:00;;;;;;;3.50;2.38;;;27.30;57.90;;;;;;4971843;28;20049;-73
2023/06/05 09:04:29;;;;;;;2.95;2.38;;;27.50;57.50;;;;;;4981014;28;20199;-72
2023/06/05 09:07:04;;;;;;;4.00;2.50;;;27.70;57.30;;;;;;4975422;28;20022;-71
2023/06/05 09:09:32;;;;;;;2.97;2.47;;;27.90;57.20;;;;;;4973319;28;20053;-73
2023/06/05 09:12:06;;;;;;;3.95;2.67;;;28.20;56.80;;;;;;4974158;28;20103;-71
2023/06/05 09:14:32;;;;;;;3.42;2.20;;;28.50;55.10;;;;;;4954905;28;20025;-73
2023/06/05 09:17:00;;;;;;;3.97;2.50;;;28.70;55.50;;;;;;4969964;28;20587;-71
2023/06/05 09:19:39;;;;;;;3.27;2.40;;;28.90;55.30;;;;;;4985790;28;20310;-73
2023/06/05 09:22:08;;;;;;;2.75;2.35;;;29.20;54.00;;;;;;4971655;28;20042;-71
2023/06/05 09:24:34;;;;;;;4.32;2.50;;;29.40;54.50;;;;;;4982601;28;20035;-74
2023/06/05 09:27:08;;;;;;;2.50;2.22;;;29.70;54.50;;;;;;4954319;28;20129;-71
2023/06/05 09:29:39;;;;;;;3.75;2.80;;;29.90;53.70;;;;;;4951246;28;20049;-73
2023/06/05 09:32:09;;;;;;;3.97;2.57;;;30.20;51.50;;;;;;4951587;28;20569;-72
2023/06/05 09:34:39;;;;;;;3.85;2.60;;;30.30;51.60;;;;;;4981370;28;20555;-74
2023/06/05 09:37:10;;;;;;;4.10;2.70;;;30.40;50.80;;;;;;4968652;28;20500;-72
2023/06/05 09:39:42;;;;;;;3.90;2.33;;;30.40;49.30;;;;;;4982080;28;20026;-72
2023/06/05 09:42:09;;;;;;;4.13;2.67;;;30.40;50.00;;;;;;4949867;28;22910;-73
2023/06/05 09:44:35;;;;;;;4.43;2.60;;;30.50;49.70;;;;;;4948818;28;20023;-72
2023/06/05 09:47:08;;;;;;;4.25;2.50;;;30.60;49.40;;;;;;4964916;28;20027;-72
2023/06/05 09:49:39;;;;;;;3.92;2.65;;;30.70;49.40;;;;;;4986283;28;20038;-72
2023/06/05 09:52:07;;;;;;;3.75;2.50;;;30.80;48.80;;;;;;4970724;28;20057;-72
2023/06/05 09:54:37;;;;;;;2.72;2.30;;;30.90;48.60;;;;;;4983331;28;20026;-73
2023/06/05 09:57:11;;;;;;;2.93;2.33;;;31.00;48.20;;;;;;4970929;28;20041;-71
2023/06/05 09:59:54;;;;;;;3.38;2.50;;;31.20;48.10;;;;;;4938452;28;20030;-73
2023/06/05 10:02:25;;;;;;;3.15;2.33;;;31.40;47.10;;;;;;4969763;28;20228;-72
2023/06/05 10:05:00;;;;;;;2.40;2.08;;;31.70;48.60;;;;;;4980773;28;20041;-72
2023/06/05 10:07:27;;;;;;;3.28;2.30;;;31.90;47.50;;;;;;4970023;28;20038;-73
2023/06/05 10:09:54;;;;;;;3.43;2.33;;;32.00;47.60;;;;;;4981625;28;20682;-71
2023/06/05 10:12:22;;;;;;;3.33;2.53;;;32.20;46.50;;;;;;4967432;28;20501;-73
2023/06/05 10:14:49;;;;;;;3.28;2.28;;;32.30;46.50;;;;;;4969458;28;20027;-72
2023/06/05 10:17:16;;;;;;;3.65;2.00;;;32.30;46.20;;;;;;4943526;28;23367;-73
2023/06/05 10:19:43;;;;;;;3.78;2.42;;;32.40;45.70;;;;;;4985356;28;20588;-73
2023/06/05 10:22:13;;;;;;;2.80;2.30;;;32.50;45.00;;;;;;4980529;28;20244;-73
2023/06/05 10:24:45;;;;;;;3.10;2.20;;;32.60;44.50;;;;;;4975419;28;20096;-72
2023/06/05 10:27:20;;;;;;;3.33;2.35;;;32.70;44.60;;;;;;4979070;28;20037;-72
2023/06/05 10:30:37;;;;;;;3.08;2.20;;;32.70;43.70;;;;;;4952600;28;20068;-72
2023/06/05 10:33:21;;;;;;;3.40;2.17;;;32.90;44.40;;;;;;4916922;28;20046;-71
2023/06/05 10:35:52;;;;;;;2.43;2.20;;;32.90;44.10;;;;;;4982233;28;20117;-72
2023/06/05 10:38:24;;;;;;;4.32;2.60;;;33.00;43.80;;;;;;4964348;28;20472;-72
2023/06/05 10:40:55;;;;;;;3.78;2.30;;;33.00;42.90;;;;;;4963517;28;20022;-72
2023/06/05 10:43:49;;;;;;;3.10;2.50;;;33.10;43.20;;;;;;4978020;28;20727;-73
2023/06/05 10:46:28;;;;;;;5.18;2.38;;;33.20;42.00;;;;;;4956350;28;20529;-73
2023/06/05 10:49:19;;;;;;;4.33;2.47;;;33.30;42.40;;;;;;4930088;28;20388;-72
2023/06/05 10:51:47;;;;;;;3.13;2.38;;;33.40;41.50;;;;;;4979317;28;20033;-72
2023/06/05 10:54:22;;;;;;;2.97;2.58;;;33.60;42.80;;;;;;4954170;28;20046;-73
2023/06/05 10:57:05;;;;;;;4.10;2.50;;;33.60;41.30;;;;;;4978721;28;20030;-72
2023/06/05 10:59:36;;;;;;;3.90;2.55;;;33.50;40.40;;;;;;4965908;28;20045;-73
2023/06/05 11:02:05;;;;;;;3.47;2.40;;;33.40;40.30;;;;;;4932572;28;20467;-72
2023/06/05 11:04:46;;;;;;;3.20;2.45;;;33.30;40.50;;;;;;4969147;28;20393;-73
2023/06/05 11:07:21;;;;;;;3.35;2.40;;;33.20;39.70;;;;;;4979101;28;20038;-72
2023/06/05 11:10:05;;;;;;;2.33;2.13;;;33.20;40.50;;;;;;4971390;28;20026;-73
2023/06/05 11:12:40;;;;;;;2.80;2.30;;;33.20;41.20;;;;;;4975128;28;20510;-73
2023/06/05 11:15:07;;;;;;;3.17;2.30;;;33.30;40.60;;;;;;4964454;28;20046;-72
2023/06/05 11:17:39;;;;;;;2.83;2.50;;;33.30;40.80;;;;;;4933000;28;20056;-73
2023/06/05 11:20:28;;;;;;;2.70;2.13;;;33.40;39.30;;;;;;4966152;28;20125;-72
2023/06/05 11:22:54;;;;;;;2.67;2.28;;;33.50;39.20;;;;;;4983945;28;20060;-73
2023/06/05 11:25:26;;;;;;;3.73;2.30;;;33.30;39.70;;;;;;4976775;28;20029;-71
2023/06/05 11:28:01;;;;;;;4.45;2.28;;;33.40;39.30;;;;;;4984530;28;20093;-72
2023/06/05 11:30:33;;;;;;;2.65;2.20;;;33.40;39.30;;;;;;4969506;28;20222;-72
2023/06/05 11:33:13;;;;;;;2.72;2.05;;;33.60;39.60;;;;;;4970775;28;20394;-73
2023/06/05 11:35:40;;;;;;;3.50;2.30;;;33.80;38.80;;;;;;4954791;28;20670;-73
2023/06/05 11:38:20;;;;;;;2.57;2.20;;;33.90;39.00;;;;;;4984977;28;20030;-71
2023/06/05 11:40:46;;;;;;;3.03;2.30;;;33.90;37.80;;;;;;4988610;28;20023;-73
2023/06/05 11:43:13;;;;;;;3.10;2.20;;;33.90;38.30;;;;;;4969676;28;20049;-71
2023/06/05 11:45:41;;;;;;;2.33;2.08;;;33.90;38.40;;;;;;4974649;28;20240;-72
2023/06/05 11:48:11;;;;;;;3.33;2.20;;;34.00;38.60;;;;;;4964452;28;20030;-71
2023/06/05 11:50:58;;;;;;;3.53;2.20;;;34.10;37.60;;;;;;4952237;28;20356;-72
2023/06/05 11:53:25;;;;;;;3.33;2.13;;;34.10;37.90;;;;;;4982168;28;20077;-72
2023/06/05 11:56:06;;;;;;;2.53;2.17;;;34.10;37.70;;;;;;4986799;28;20685;-71
2023/06/05 11:58:35;;;;;;;2.20;2.00;;;34.20;37.60;;;;;;4968496;28;20022;-72
2023/06/05 12:01:21;;;;;;;3.47;2.20;;;34.30;38.00;;;;;;4970539;28;20383;-72
2023/06/05 12:03:48;;;;;;;2.05;1.77;;;34.40;37.00;;;;;;4970391;28;20065;-72
2023/06/05 12:06:17;;;;;;;2.47;1.90;;;34.40;37.80;;;;;;4910117;28;20093;-71
2023/06/05 12:08:44;;;;;;;3.17;2.05;;;34.40;36.90;;;;;;4977142;28;20109;-73
2023/06/05 12:11:21;;;;;;;4.45;2.55;;;34.40;36.30;;;;;;4988288;28;20022;-71
2023/06/05 12:13:55;;;;;;;3.40;2.10;;;34.40;35.40;;;;;;4966915;28;20026;-72
2023/06/05 12:16:35;;;;;;;3.30;2.00;;;34.40;36.50;;;;;;4965362;28;20038;-71
2023/06/05 12:19:10;;;;;;;2.30;1.88;;;34.40;35.70;;;;;;4969737;28;20635;-72
2023/06/05 12:21:36;;;;;;;2.70;1.90;;;34.40;36.30;;;;;;4926856;28;20448;-72
2023/06/05 12:24:03;;;;;;;3.80;2.10;;;34.50;36.50;;;;;;4982682;28;20037;-72
2023/06/05 12:26:33;;;;;;;2.05;1.60;;;34.50;36.30;;;;;;4979038;28;20029;-72
2023/06/05 12:29:06;;;;;;;2.28;1.85;;;34.60;36.40;;;;;;4974145;28;20041;-73
2023/06/05 12:31:34;;;;;;;5.63;2.05;;;34.70;35.70;;;;;;4954835;28;20035;-72
2023/06/05 12:34:00;;;;;;;3.15;2.15;;;34.80;36.70;;;;;;4968907;28;20033;-73
2023/06/05 12:36:25;;;;;;;3.10;2.00;;;34.90;36.30;;;;;;4936656;28;20735;-73
2023/06/05 12:38:51;;;;;;;3.20;2.47;;;34.90;36.20;;;;;;4987595;28;20754;-72
2023/06/05 12:41:17;;;;;;;2.53;1.90;;;35.00;35.70;;;;;;4979247;28;20389;-71
2023/06/05 12:43:43;;;;;;;3.53;2.20;;;34.90;35.40;;;;;;4968039;28;20066;-72
2023/06/05 12:46:08;;;;;;;2.37;1.70;;;34.90;35.00;;;;;;4966473;28;20137;-71
2023/06/05 12:48:37;;;;;;;2.38;1.80;;;34.80;35.20;;;;;;4962556;28;20288;-72
2023/06/05 12:51:03;;;;;;;2.00;1.77;;;34.80;34.80;;;;;;4951933;28;20125;-72
2023/06/05 12:53:29;;;;;;;2.60;1.90;;;34.90;35.20;;;;;;4967175;28;20103;-72
2023/06/05 12:55:55;;;;;;;2.53;1.83;;;35.00;35.00;;;;;;4951334;28;20042;-72